sensor_id;sensor_type;location;lat;lon;timestamp;temperature;humidity
484;DHT22;228;48.922;12.198;2023-11-18T05:01:16;7.00;93.50
484;DHT22;228;48.922;12.198;2023-11-18T05:03:43;7.10;93.30
484;DHT22;228;48.922;12.198;2023-11-18T05:06:09;7.30;93.00
484;DHT22;228;48.922;12.198;2023-11-18T05:08:35;6.80;93.10
484;DHT22;228;48.922;12.198;2023-11-18T05:11:02;7.00;93.60
484;DHT22;228;48.922;12.198;2023-11-18T05:13:30;7.20;92.80
484;DHT22;228;48.922;12.198;2023-11-18T05:15:56;7.10;92.60
484;DHT22;228;48.922;12.198;2023-11-18T05:18:22;7.30;92.20
484;DHT22;228;48.922;12.198;2023-11-18T05:20:48;7.30;92.20
484;DHT22;228;48.922;12.198;2023-11-18T05:23:14;7.30;91.90
484;DHT22;228;48.922;12.198;2023-11-18T05:25:40;7.50;91.60
484;DHT22;228;48.922;12.198;2023-11-18T05:28:06;7.60;91.40
484;DHT22;228;48.922;12.198;2023-11-18T05:30:35;7.40;91.30
484;DHT22;228;48.922;12.198;2023-11-18T05:33:05;7.40;91.60
484;DHT22;228;48.922;12.198;2023-11-18T13:03:01;13.80;62.90
484;DHT22;228;48.922;12.198;2023-11-18T13:05:27;13.50;64.50
484;DHT22;228;48.922;12.198;2023-11-18T13:07:56;13.00;66.60
484;DHT22;228;48.922;12.198;2023-11-18T13:10:27;12.70;68.70
484;DHT22;228;48.922;12.198;2023-11-18T13:12:53;13.30;67.70
484;DHT22;228;48.922;12.198;2023-11-18T15:45:20;7.00;96.40
484;DHT22;228;48.922;12.198;2023-11-18T15:47:47;7.10;97.00
484;DHT22;228;48.922;12.198;2023-11-18T15:50:14;6.90;97.30
484;DHT22;228;48.922;12.198;2023-11-18T15:52:42;6.90;97.30
484;DHT22;228;48.922;12.198;2023-11-18T15:55:09;6.60;98.00
484;DHT22;228;48.922;12.198;2023-11-18T15:57:45;6.50;98.90
484;DHT22;228;48.922;12.198;2023-11-18T16:00:19;6.30;99.50
484;DHT22;228;48.922;12.198;2023-11-18T16:02:47;6.40;99.90
484;DHT22;228;48.922;12.198;2023-11-18T16:05:15;6.20;99.90
484;DHT22;228;48.922;12.198;2023-11-18T16:07:47;6.30;99.90
484;DHT22;228;48.922;12.198;2023-11-18T16:10:14;6.70;99.90
484;DHT22;228;48.922;12.198;2023-11-18T16:12:52;6.60;99.90
484;DHT22;228;48.922;12.198;2023-11-18T16:15:24;6.70;99.90
484;DHT22;228;48.922;12.198;2023-11-18T16:17:53;6.70;99.90
484;DHT22;228;48.922;12.198;2023-11-18T16:20:22;6.60;99.90
484;DHT22;228;48.922;12.198;2023-11-18T16:22:49;6.80;99.90
484;DHT22;228;48.922;12.198;2023-11-18T16:25:16;7.00;99.30
484;DHT22;228;48.922;12.198;2023-11-18T16:27:45;6.90;99.40
484;DHT22;228;48.922;12.198;2023-11-18T16:30:11;6.90;99.60
484;DHT22;228;48.922;12.198;2023-11-18T16:32:37;7.00;99.40
484;DHT22;228;48.922;12.198;2023-11-18T16:35:03;7.10;99.00
484;DHT22;228;48.922;12.198;2023-11-18T16:37:29;7.20;99.00
484;DHT22;228;48.922;12.198;2023-11-18T16:39:58;7.10;99.10
484;DHT22;228;48.922;12.198;2023-11-18T16:42:24;7.50;98.60
484;DHT22;228;48.922;12.198;2023-11-18T16:44:54;7.40;97.50
484;DHT22;228;48.922;12.198;2023-11-18T16:47:20;7.50;98.10
484;DHT22;228;48.922;12.198;2023-11-18T16:49:47;7.60;97.60
484;DHT22;228;48.922;12.198;2023-11-18T16:52:13;7.40;97.60
484;DHT22;228;48.922;12.198;2023-11-18T16:54:39;7.40;97.80
484;DHT22;228;48.922;12.198;2023-11-18T16:57:05;7.50;98.00
484;DHT22;228;48.922;12.198;2023-11-18T16:59:31;7.40;97.80
484;DHT22;228;48.922;12.198;2023-11-18T17:01:57;7.30;98.10
484;DHT22;228;48.922;12.198;2023-11-18T17:04:23;7.30;98.20
484;DHT22;228;48.922;12.198;2023-11-18T17:06:49;7.40;97.30
484;DHT22;228;48.922;12.198;2023-11-18T17:09:16;7.30;97.50
484;DHT22;228;48.922;12.198;2023-11-18T17:11:42;7.10;98.40
484;DHT22;228;48.922;12.198;2023-11-18T17:14:08;7.20;98.40
484;DHT22;228;48.922;12.198;2023-11-18T17:16:35;7.80;97.50
484;DHT22;228;48.922;12.198;2023-11-18T17:19:01;8.20;96.10
484;DHT22;228;48.922;12.198;2023-11-18T17:21:27;8.10;95.80
484;DHT22;228;48.922;12.198;2023-11-18T17:23:53;8.40;95.50
484;DHT22;228;48.922;12.198;2023-11-18T17:26:19;8.60;95.00
484;DHT22;228;48.922;12.198;2023-11-18T17:28:44;8.70;94.40
484;DHT22;228;48.922;12.198;2023-11-18T17:31:11;8.70;94.50
484;DHT22;228;48.922;12.198;2023-11-18T17:33:38;8.70;93.90
484;DHT22;228;48.922;12.198;2023-11-18T17:36:05;8.70;93.80
484;DHT22;228;48.922;12.198;2023-11-18T17:38:33;8.70;93.90
484;DHT22;228;48.922;12.198;2023-11-18T17:40:59;8.30;94.90
484;DHT22;228;48.922;12.198;2023-11-18T17:43:25;8.10;95.10
484;DHT22;228;48.922;12.198;2023-11-18T17:45:52;8.00;95.10
484;DHT22;228;48.922;12.198;2023-11-18T17:48:20;8.00;95.30
484;DHT22;228;48.922;12.198;2023-11-18T17:50:46;8.10;95.50
484;DHT22;228;48.922;12.198;2023-11-18T17:53:12;8.00;95.30
484;DHT22;228;48.922;12.198;2023-11-18T17:55:37;7.80;95.70
484;DHT22;228;48.922;12.198;2023-11-18T17:58:03;7.70;96.40
484;DHT22;228;48.922;12.198;2023-11-18T18:00:29;7.60;96.70
484;DHT22;228;48.922;12.198;2023-11-18T18:02:56;7.50;96.50
484;DHT22;228;48.922;12.198;2023-11-18T18:05:22;7.50;96.80
484;DHT22;228;48.922;12.198;2023-11-18T18:07:50;7.30;97.50
484;DHT22;228;48.922;12.198;2023-11-18T18:10:17;7.50;97.60
484;DHT22;228;48.922;12.198;2023-11-18T18:12:44;7.90;96.50
484;DHT22;228;48.922;12.198;2023-11-18T18:15:13;7.70;96.80
484;DHT22;228;48.922;12.198;2023-11-18T18:17:39;7.40;96.90
484;DHT22;228;48.922;12.198;2023-11-18T18:20:05;7.40;97.40
484;DHT22;228;48.922;12.198;2023-11-18T18:22:39;7.60;97.60
484;DHT22;228;48.922;12.198;2023-11-18T18:25:05;7.70;96.70
484;DHT22;228;48.922;12.198;2023-11-18T18:27:32;8.20;96.30
484;DHT22;228;48.922;12.198;2023-11-18T18:29:59;8.50;94.90
484;DHT22;228;48.922;12.198;2023-11-18T18:32:25;8.50;94.50
484;DHT22;228;48.922;12.198;2023-11-18T18:34:51;8.60;94.40
484;DHT22;228;48.922;12.198;2023-11-18T18:37:18;8.40;94.70
484;DHT22;228;48.922;12.198;2023-11-18T18:39:44;8.30;94.80
484;DHT22;228;48.922;12.198;2023-11-18T18:42:12;8.40;95.10
484;DHT22;228;48.922;12.198;2023-11-18T18:44:38;8.00;95.50
484;DHT22;228;48.922;12.198;2023-11-18T18:47:04;8.00;96.00
484;DHT22;228;48.922;12.198;2023-11-18T18:49:32;8.40;95.40
484;DHT22;228;48.922;12.198;2023-11-18T18:51:59;8.50;95.10
484;DHT22;228;48.922;12.198;2023-11-18T18:54:25;8.10;95.50
484;DHT22;228;48.922;12.198;2023-11-18T18:56:51;8.20;96.10
484;DHT22;228;48.922;12.198;2023-11-18T18:59:17;8.10;95.60
484;DHT22;228;48.922;12.198;2023-11-18T19:01:43;7.90;96.40
484;DHT22;228;48.922;12.198;2023-11-18T19:04:11;8.00;96.60
484;DHT22;228;48.922;12.198;2023-11-18T19:06:38;8.00;96.60
484;DHT22;228;48.922;12.198;2023-11-18T19:09:05;7.90;96.50
484;DHT22;228;48.922;12.198;2023-11-18T19:11:40;7.70;97.10
484;DHT22;228;48.922;12.198;2023-11-18T19:14:06;7.80;97.50
484;DHT22;228;48.922;12.198;2023-11-18T19:16:33;8.00;97.00
484;DHT22;228;48.922;12.198;2023-11-18T19:18:59;8.00;97.00
484;DHT22;228;48.922;12.198;2023-11-18T19:21:25;8.20;96.70
484;DHT22;228;48.922;12.198;2023-11-18T19:23:51;8.00;96.80
484;DHT22;228;48.922;12.198;2023-11-18T19:26:21;7.20;98.00
484;DHT22;228;48.922;12.198;2023-11-18T19:28:47;7.40;98.90
484;DHT22;228;48.922;12.198;2023-11-18T19:31:14;7.50;98.80
484;DHT22;228;48.922;12.198;2023-11-18T19:36:11;7.60;99.90
484;DHT22;228;48.922;12.198;2023-11-18T19:38:38;7.40;99.90
484;DHT22;228;48.922;12.198;2023-11-18T19:41:05;7.10;99.90
484;DHT22;228;48.922;12.198;2023-11-18T19:43:33;7.30;99.90
484;DHT22;228;48.922;12.198;2023-11-18T19:46:00;7.30;99.90
484;DHT22;228;48.922;12.198;2023-11-18T19:48:26;7.00;99.90
484;DHT22;228;48.922;12.198;2023-11-18T19:50:53;7.20;99.90
484;DHT22;228;48.922;12.198;2023-11-18T19:53:20;7.00;99.90
484;DHT22;228;48.922;12.198;2023-11-18T19:58:12;6.90;99.90
484;DHT22;228;48.922;12.198;2023-11-18T20:00:38;7.00;99.90
484;DHT22;228;48.922;12.198;2023-11-18T20:03:05;7.30;99.90
484;DHT22;228;48.922;12.198;2023-11-18T20:05:31;7.10;99.90
484;DHT22;228;48.922;12.198;2023-11-18T20:07:58;7.10;99.90
484;DHT22;228;48.922;12.198;2023-11-18T20:10:24;7.20;99.90
484;DHT22;228;48.922;12.198;2023-11-18T20:12:50;7.10;99.90
484;DHT22;228;48.922;12.198;2023-11-18T20:15:16;7.10;99.90
484;DHT22;228;48.922;12.198;2023-11-18T20:17:43;7.30;99.90
484;DHT22;228;48.922;12.198;2023-11-18T20:20:12;7.30;99.90
484;DHT22;228;48.922;12.198;2023-11-18T20:22:38;7.40;99.90
484;DHT22;228;48.922;12.198;2023-11-18T20:25:05;7.40;99.90
484;DHT22;228;48.922;12.198;2023-11-18T20:27:35;7.90;99.90
484;DHT22;228;48.922;12.198;2023-11-18T20:30:05;7.30;99.90
484;DHT22;228;48.922;12.198;2023-11-18T20:32:32;7.30;99.90
484;DHT22;228;48.922;12.198;2023-11-18T20:35:02;7.20;99.90
484;DHT22;228;48.922;12.198;2023-11-18T20:37:28;7.20;99.90
484;DHT22;228;48.922;12.198;2023-11-18T20:39:54;7.20;99.90
484;DHT22;228;48.922;12.198;2023-11-18T20:42:22;7.10;99.90
484;DHT22;228;48.922;12.198;2023-11-18T20:44:50;7.00;99.90
484;DHT22;228;48.922;12.198;2023-11-18T20:47:16;7.00;99.90
484;DHT22;228;48.922;12.198;2023-11-18T20:49:43;7.20;99.90
484;DHT22;228;48.922;12.198;2023-11-18T20:52:09;7.20;99.90
484;DHT22;228;48.922;12.198;2023-11-18T20:54:36;7.20;99.90
484;DHT22;228;48.922;12.198;2023-11-18T20:57:02;7.10;99.90
484;DHT22;228;48.922;12.198;2023-11-18T20:59:28;5.20;99.90
484;DHT22;228;48.922;12.198;2023-11-18T21:01:57;7.10;99.90
484;DHT22;228;48.922;12.198;2023-11-18T21:04:22;6.90;99.90
484;DHT22;228;48.922;12.198;2023-11-18T21:06:49;7.00;99.90
484;DHT22;228;48.922;12.198;2023-11-18T21:09:15;7.10;99.90
484;DHT22;228;48.922;12.198;2023-11-18T21:11:41;7.00;99.90
484;DHT22;228;48.922;12.198;2023-11-18T21:14:07;6.90;99.90
484;DHT22;228;48.922;12.198;2023-11-18T21:16:34;7.10;99.90
484;DHT22;228;48.922;12.198;2023-11-18T21:19:01;6.90;99.90
484;DHT22;228;48.922;12.198;2023-11-18T21:21:29;6.90;99.90
484;DHT22;228;48.922;12.198;2023-11-18T21:23:55;6.60;99.90
484;DHT22;228;48.922;12.198;2023-11-18T21:26:21;6.60;99.90
484;DHT22;228;48.922;12.198;2023-11-18T21:28:50;6.50;99.90
484;DHT22;228;48.922;12.198;2023-11-18T21:31:16;6.40;99.90
484;DHT22;228;48.922;12.198;2023-11-18T21:33:43;6.40;99.90
484;DHT22;228;48.922;12.198;2023-11-18T21:36:09;6.40;99.90
484;DHT22;228;48.922;12.198;2023-11-18T21:38:40;6.30;99.90
484;DHT22;228;48.922;12.198;2023-11-18T21:41:06;6.30;99.90
484;DHT22;228;48.922;12.198;2023-11-18T21:43:32;6.50;99.90
484;DHT22;228;48.922;12.198;2023-11-18T21:45:59;6.70;99.90
484;DHT22;228;48.922;12.198;2023-11-18T21:48:25;6.60;99.90
484;DHT22;228;48.922;12.198;2023-11-18T21:50:52;6.50;99.90
484;DHT22;228;48.922;12.198;2023-11-18T21:53:19;6.90;99.90
484;DHT22;228;48.922;12.198;2023-11-18T21:55:46;6.80;99.90
484;DHT22;228;48.922;12.198;2023-11-18T21:58:23;6.70;99.90
484;DHT22;228;48.922;12.198;2023-11-18T22:00:50;6.70;99.90
484;DHT22;228;48.922;12.198;2023-11-18T22:03:16;6.70;99.90
484;DHT22;228;48.922;12.198;2023-11-18T22:05:42;6.70;99.90
484;DHT22;228;48.922;12.198;2023-11-18T22:08:10;6.70;99.90
484;DHT22;228;48.922;12.198;2023-11-18T22:10:39;6.60;99.90
484;DHT22;228;48.922;12.198;2023-11-18T22:13:05;6.50;99.90
